sensor_id;sensor_type;location;lat;lon;timestamp;pressure;altitude;pressure_sealevel;temperature;humidity
60715;BME280;46564;53.096;8.246;2023-01-26T00:03:37;102287.06;;;-2.44;nan
60715;BME280;46564;53.096;8.246;2023-01-26T00:08:44;102278.19;;;-2.47;nan
60715;BME280;46564;53.096;8.246;2023-01-26T00:13:48;102278.63;;;-2.43;nan
60715;BME280;46564;53.096;8.246;2023-01-26T00:18:50;102266.56;;;-2.44;nan
60715;BME280;46564;53.096;8.246;2023-01-26T00:23:53;102275.56;;;-2.39;nan
60715;BME280;46564;53.096;8.246;2023-01-26T00:28:55;102263.81;;;-2.37;nan
60715;BME280;46564;53.096;8.246;2023-01-26T00:33:57;102261.38;;;-2.35;nan
60715;BME280;46564;53.096;8.246;2023-01-26T00:38:58;102255.81;;;-2.40;nan
60715;BME280;46564;53.096;8.246;2023-01-26T00:44:03;102260.16;;;-2.39;nan
60715;BME280;46564;53.096;8.246;2023-01-26T00:49:05;102246.88;;;-2.35;nan
60715;BME280;46564;53.096;8.246;2023-01-26T00:54:07;102235.09;;;-2.33;nan
60715;BME280;46564;53.096;8.246;2023-01-26T00:59:08;102248.69;;;-2.34;nan
60715;BME280;46564;53.096;8.246;2023-01-26T01:04:10;102232.81;;;-2.29;nan
60715;BME280;46564;53.096;8.246;2023-01-26T01:09:12;102235.38;;;-2.29;nan
60715;BME280;46564;53.096;8.246;2023-01-26T01:14:14;102228.25;;;-2.23;nan
60715;BME280;46564;53.096;8.246;2023-01-26T01:19:17;102230.81;;;-2.23;nan
60715;BME280;46564;53.096;8.246;2023-01-26T01:24:25;102227.31;;;-2.24;nan
60715;BME280;46564;53.096;8.246;2023-01-26T01:29:29;102227.31;;;-2.24;nan
60715;BME280;46564;53.096;8.246;2023-01-26T01:34:31;102232.88;;;-2.19;nan
60715;BME280;46564;53.096;8.246;2023-01-26T01:39:33;102228.94;;;-2.16;nan
60715;BME280;46564;53.096;8.246;2023-01-26T01:44:36;102222.00;;;-2.17;nan
60715;BME280;46564;53.096;8.246;2023-01-26T01:49:44;102226.53;;;-2.14;nan
60715;BME280;46564;53.096;8.246;2023-01-26T01:55:00;102226.78;;;-2.11;nan
60715;BME280;46564;53.096;8.246;2023-01-26T02:00:08;102221.66;;;-2.11;nan
60715;BME280;46564;53.096;8.246;2023-01-26T02:05:24;102214.25;;;-2.08;nan
60715;BME280;46564;53.096;8.246;2023-01-26T02:10:27;102215.13;;;-2.07;nan
60715;BME280;46564;53.096;8.246;2023-01-26T02:15:30;102214.25;;;-2.08;nan
60715;BME280;46564;53.096;8.246;2023-01-26T02:30:52;102212.78;;;-1.96;nan
60715;BME280;46564;53.096;8.246;2023-01-26T02:35:54;102202.84;;;-2.01;nan
60715;BME280;46564;53.096;8.246;2023-01-26T02:41:01;102198.50;;;-2.02;nan
60715;BME280;46564;53.096;8.246;2023-01-26T02:46:04;102199.38;;;-2.02;nan
60715;BME280;46564;53.096;8.246;2023-01-26T02:51:10;102196.22;;;-1.99;nan
60715;BME280;46564;53.096;8.246;2023-01-26T02:56:12;102190.72;;;-1.93;nan
60715;BME280;46564;53.096;8.246;2023-01-26T03:01:13;102189.94;;;-1.92;nan
60715;BME280;46564;53.096;8.246;2023-01-26T03:06:20;102188.16;;;-1.93;nan
60715;BME280;46564;53.096;8.246;2023-01-26T03:11:22;102187.94;;;-1.86;nan
60715;BME280;46564;53.096;8.246;2023-01-26T03:16:23;102175.88;;;-1.87;nan
60715;BME280;46564;53.096;8.246;2023-01-26T03:21:25;102179.47;;;-1.85;nan
60715;BME280;46564;53.096;8.246;2023-01-26T03:26:46;102190.34;;;-1.88;nan
60715;BME280;46564;53.096;8.246;2023-01-26T03:32:07;102180.34;;;-1.85;nan
60715;BME280;46564;53.096;8.246;2023-01-26T03:37:09;102177.31;;;-1.81;nan
60715;BME280;46564;53.096;8.246;2023-01-26T03:42:18;102178.72;;;-1.84;nan
60715;BME280;46564;53.096;8.246;2023-01-26T03:47:38;102172.03;;;-1.82;nan
60715;BME280;46564;53.096;8.246;2023-01-26T03:53:00;102166.00;;;-1.83;nan
60715;BME280;46564;53.096;8.246;2023-01-26T03:58:20;102164.47;;;-1.81;nan
60715;BME280;46564;53.096;8.246;2023-01-26T04:03:22;102164.59;;;-1.79;nan
60715;BME280;46564;53.096;8.246;2023-01-26T04:08:43;102152.97;;;-1.75;nan
60715;BME280;46564;53.096;8.246;2023-01-26T04:13:47;102155.13;;;-1.80;nan
60715;BME280;46564;53.096;8.246;2023-01-26T04:19:08;102149.97;;;-1.80;nan
60715;BME280;46564;53.096;8.246;2023-01-26T04:24:28;102149.72;;;-1.73;nan
60715;BME280;46564;53.096;8.246;2023-01-26T04:29:31;102147.16;;;-1.73;nan
60715;BME280;46564;53.096;8.246;2023-01-26T04:34:33;102141.53;;;-1.69;nan
60715;BME280;46564;53.096;8.246;2023-01-26T04:39:39;102140.00;;;-1.67;nan
60715;BME280;46564;53.096;8.246;2023-01-26T04:44:41;102142.69;;;-1.65;nan
60715;BME280;46564;53.096;8.246;2023-01-26T04:49:43;102135.44;;;-1.61;nan
60715;BME280;46564;53.096;8.246;2023-01-26T04:54:47;102143.88;;;-1.62;nan
60715;BME280;46564;53.096;8.246;2023-01-26T04:59:49;102128.13;;;-1.56;nan
60715;BME280;46564;53.096;8.246;2023-01-26T05:04:53;102131.09;;;-1.51;nan
60715;BME280;46564;53.096;8.246;2023-01-26T05:09:55;102121.06;;;-1.48;nan
60715;BME280;46564;53.096;8.246;2023-01-26T05:15:15;102121.34;;;-1.45;nan
60715;BME280;46564;53.096;8.246;2023-01-26T05:20:35;102112.09;;;-1.43;nan
60715;BME280;46564;53.096;8.246;2023-01-26T05:25:59;102111.97;;;-1.45;nan
60715;BME280;46564;53.096;8.246;2023-01-26T05:31:02;102116.47;;;-1.42;nan
60715;BME280;46564;53.096;8.246;2023-01-26T05:36:05;102115.72;;;-1.41;nan
60715;BME280;46564;53.096;8.246;2023-01-26T05:41:08;102120.84;;;-1.41;nan
60715;BME280;46564;53.096;8.246;2023-01-26T05:46:24;102129.44;;;-1.40;nan
60715;BME280;46564;53.096;8.246;2023-01-26T05:51:26;102128.44;;;-1.43;nan
60715;BME280;46564;53.096;8.246;2023-01-26T05:56:28;102124.56;;;-1.37;nan
60715;BME280;46564;53.096;8.246;2023-01-26T06:01:34;102118.53;;;-1.38;nan
60715;BME280;46564;53.096;8.246;2023-01-26T06:06:39;102127.28;;;-1.36;nan
60715;BME280;46564;53.096;8.246;2023-01-26T06:12:05;102126.66;;;-1.33;nan
60715;BME280;46564;53.096;8.246;2023-01-26T06:17:31;102136.53;;;-1.38;nan
60715;BME280;46564;53.096;8.246;2023-01-26T06:22:36;102128.81;;;-1.38;nan
60715;BME280;46564;53.096;8.246;2023-01-26T06:27:37;102134.22;;;-1.35;nan
60715;BME280;46564;53.096;8.246;2023-01-26T06:32:49;102141.16;;;-1.34;nan
60715;BME280;46564;53.096;8.246;2023-01-26T06:37:52;102148.63;;;-1.27;nan
60715;BME280;46564;53.096;8.246;2023-01-26T06:42:54;102155.72;;;-1.24;nan
60715;BME280;46564;53.096;8.246;2023-01-26T06:47:56;102156.72;;;-1.22;nan
60715;BME280;46564;53.096;8.246;2023-01-26T06:52:59;102158.53;;;-1.21;nan
60715;BME280;46564;53.096;8.246;2023-01-26T06:58:10;102159.69;;;-1.17;nan
60715;BME280;46564;53.096;8.246;2023-01-26T07:03:31;102165.09;;;-1.14;nan
60715;BME280;46564;53.096;8.246;2023-01-26T07:08:33;102166.91;;;-1.13;nan
60715;BME280;46564;53.096;8.246;2023-01-26T07:13:35;102157.78;;;-1.10;nan
60715;BME280;46564;53.096;8.246;2023-01-26T07:18:36;102152.81;;;-1.08;nan
60715;BME280;46564;53.096;8.246;2023-01-26T07:23:39;102162.69;;;-1.02;nan
60715;BME280;46564;53.096;8.246;2023-01-26T07:28:40;102172.09;;;-1.03;nan
60715;BME280;46564;53.096;8.246;2023-01-26T07:33:42;102165.53;;;-0.99;nan
60715;BME280;46564;53.096;8.246;2023-01-26T07:38:44;102176.06;;;-0.96;nan
60715;BME280;46564;53.096;8.246;2023-01-26T07:43:46;102180.59;;;-0.94;nan
60715;BME280;46564;53.096;8.246;2023-01-26T07:48:51;102181.47;;;-0.93;nan
60715;BME280;46564;53.096;8.246;2023-01-26T07:53:53;102163.59;;;-0.92;nan
60715;BME280;46564;53.096;8.246;2023-01-26T07:58:56;102176.63;;;-0.90;nan
60715;BME280;46564;53.096;8.246;2023-01-26T08:03:59;102167.84;;;-0.92;nan
60715;BME280;46564;53.096;8.246;2023-01-26T08:09:02;102172.38;;;-0.90;nan
60715;BME280;46564;53.096;8.246;2023-01-26T08:14:03;102175.06;;;-0.88;nan
60715;BME280;46564;53.096;8.246;2023-01-26T08:19:05;102183.19;;;-0.83;nan
60715;BME280;46564;53.096;8.246;2023-01-26T08:24:07;102180.09;;;-0.79;nan
60715;BME280;46564;53.096;8.246;2023-01-26T08:29:09;102180.38;;;-0.76;nan
60715;BME280;46564;53.096;8.246;2023-01-26T08:34:11;102180.75;;;-0.72;nan
60715;BME280;46564;53.096;8.246;2023-01-26T08:39:12;102190.16;;;-0.72;nan
60715;BME280;46564;53.096;8.246;2023-01-26T08:44:14;102194.00;;;-0.67;nan
60715;BME280;46564;53.096;8.246;2023-01-26T08:49:15;102189.63;;;-0.58;nan
60715;BME280;46564;53.096;8.246;2023-01-26T08:54:17;102189.88;;;-0.55;nan
60715;BME280;46564;53.096;8.246;2023-01-26T08:59:19;102200.31;;;-0.53;nan
60715;BME280;46564;53.096;8.246;2023-01-26T09:04:20;102202.50;;;-0.47;nan
60715;BME280;46564;53.096;8.246;2023-01-26T09:09:22;102204.81;;;-0.40;nan
60715;BME280;46564;53.096;8.246;2023-01-26T09:14:24;102205.22;;;-0.36;nan
60715;BME280;46564;53.096;8.246;2023-01-26T09:19:25;102210.63;;;-0.32;nan
60715;BME280;46564;53.096;8.246;2023-01-26T09:24:28;102214.59;;;-0.26;nan
60715;BME280;46564;53.096;8.246;2023-01-26T09:29:31;102212.41;;;-0.21;nan
60715;BME280;46564;53.096;8.246;2023-01-26T09:34:32;102209.94;;;-0.09;nan
60715;BME280;46564;53.096;8.246;2023-01-26T09:39:34;102199.88;;;0.04;nan
60715;BME280;46564;53.096;8.246;2023-01-26T09:44:45;102192.75;;;0.22;nan
60715;BME280;46564;53.096;8.246;2023-01-26T09:50:01;102186.69;;;0.32;nan
60715;BME280;46564;53.096;8.246;2023-01-26T09:55:12;102198.63;;;0.42;nan
60715;BME280;46564;53.096;8.246;2023-01-26T10:00:46;102190.50;;;0.47;nan
60715;BME280;46564;53.096;8.246;2023-01-26T10:11:31;102206.84;;;0.80;nan
60715;BME280;46564;53.096;8.246;2023-01-26T10:16:36;102194.63;;;1.00;nan
60715;BME280;46564;53.096;8.246;2023-01-26T10:21:43;102190.13;;;1.19;nan
60715;BME280;46564;53.096;8.246;2023-01-26T10:26:46;102182.38;;;1.41;nan
60715;BME280;46564;53.096;8.246;2023-01-26T10:31:48;102183.88;;;1.62;nan
60715;BME280;46564;53.096;8.246;2023-01-26T10:43:19;102183.25;;;2.00;nan
60715;BME280;46564;53.096;8.246;2023-01-26T10:49:40;102181.72;;;2.25;nan
60715;BME280;46564;53.096;8.246;2023-01-26T10:55:20;102191.56;;;2.43;nan
60715;BME280;46564;53.096;8.246;2023-01-26T11:00:26;102188.22;;;2.44;nan
60715;BME280;46564;53.096;8.246;2023-01-26T11:05:32;102182.47;;;2.48;nan
60715;BME280;46564;53.096;8.246;2023-01-26T11:10:38;102191.56;;;2.55;nan
60715;BME280;46564;53.096;8.246;2023-01-26T11:16:18;102186.69;;;2.83;nan
60715;BME280;46564;53.096;8.246;2023-01-26T11:21:29;102184.00;;;3.18;nan
60715;BME280;46564;53.096;8.246;2023-01-26T12:50:31;102090.56;;;6.09;nan
60715;BME280;46564;53.096;8.246;2023-01-26T13:01:37;102088.06;;;5.80;nan
60715;BME280;46564;53.096;8.246;2023-01-26T13:07:54;102087.53;;;5.71;nan
60715;BME280;46564;53.096;8.246;2023-01-26T13:13:24;102078.66;;;5.68;nan
60715;BME280;46564;53.096;8.246;2023-01-26T13:18:55;102070.59;;;5.63;nan
60715;BME280;46564;53.096;8.246;2023-01-26T13:29:55;102091.41;;;5.48;nan
60715;BME280;46564;53.096;8.246;2023-01-26T13:35:12;102085.91;;;5.43;nan
60715;BME280;46564;53.096;8.246;2023-01-26T13:40:34;102073.66;;;5.41;nan
60715;BME280;46564;53.096;8.246;2023-01-26T13:53:35;102082.88;;;5.51;nan
60715;BME280;46564;53.096;8.246;2023-01-26T14:52:04;102085.72;;;5.40;nan
60715;BME280;46564;53.096;8.246;2023-01-26T14:57:06;102080.34;;;5.37;nan
60715;BME280;46564;53.096;8.246;2023-01-26T15:02:17;102085.28;;;5.32;nan
60715;BME280;46564;53.096;8.246;2023-01-26T15:12:46;102082.41;;;5.28;nan
60715;BME280;46564;53.096;8.246;2023-01-26T15:18:33;102090.03;;;5.25;nan
60715;BME280;46564;53.096;8.246;2023-01-26T15:23:43;102088.50;;;5.13;nan
60715;BME280;46564;53.096;8.246;2023-01-26T15:28:49;102087.91;;;5.04;nan
60715;BME280;46564;53.096;8.246;2023-01-26T15:33:55;102091.88;;;4.98;nan
60715;BME280;46564;53.096;8.246;2023-01-26T15:39:59;102102.75;;;4.92;nan
60715;BME280;46564;53.096;8.246;2023-01-26T15:58:09;102122.53;;;4.62;nan
60715;BME280;46564;53.096;8.246;2023-01-26T16:04:07;102133.03;;;4.50;nan
60715;BME280;46564;53.096;8.246;2023-01-26T16:09:14;102138.63;;;4.42;nan
60715;BME280;46564;53.096;8.246;2023-01-26T16:14:18;102136.66;;;4.38;nan
60715;BME280;46564;53.096;8.246;2023-01-26T16:19:21;102140.81;;;4.36;nan
60715;BME280;46564;53.096;8.246;2023-01-26T16:24:36;102145.81;;;4.33;nan
60715;BME280;46564;53.096;8.246;2023-01-26T16:29:37;102138.63;;;4.29;nan
60715;BME280;46564;53.096;8.246;2023-01-26T16:34:39;102148.41;;;4.20;nan
60715;BME280;46564;53.096;8.246;2023-01-26T16:39:40;102154.41;;;4.19;nan
60715;BME280;46564;53.096;8.246;2023-01-26T16:44:46;102158.19;;;4.11;nan
60715;BME280;46564;53.096;8.246;2023-01-26T16:49:55;102151.00;;;4.06;nan
60715;BME280;46564;53.096;8.246;2023-01-26T16:54:56;102151.63;;;4.02;nan
60715;BME280;46564;53.096;8.246;2023-01-26T16:59:59;102147.22;;;4.01;nan
60715;BME280;46564;53.096;8.246;2023-01-26T17:05:01;102158.28;;;3.99;nan
60715;BME280;46564;53.096;8.246;2023-01-26T17:10:03;102154.69;;;3.97;nan
60715;BME280;46564;53.096;8.246;2023-01-26T17:15:06;102154.41;;;3.92;nan
60715;BME280;46564;53.096;8.246;2023-01-26T17:20:11;102149.31;;;3.94;nan
60715;BME280;46564;53.096;8.246;2023-01-26T17:25:20;102152.50;;;3.89;nan
60715;BME280;46564;53.096;8.246;2023-01-26T17:30:22;102162.75;;;3.88;nan
60715;BME280;46564;53.096;8.246;2023-01-26T17:35:23;102166.84;;;3.84;nan
60715;BME280;46564;53.096;8.246;2023-01-26T17:40:25;102164.25;;;3.84;nan
60715;BME280;46564;53.096;8.246;2023-01-26T17:45:27;102164.47;;;3.87;nan
60715;BME280;46564;53.096;8.246;2023-01-26T17:50:29;102174.84;;;3.87;nan
60715;BME280;46564;53.096;8.246;2023-01-26T17:55:31;102172.91;;;3.85;nan
60715;BME280;46564;53.096;8.246;2023-01-26T18:00:33;102167.53;;;3.82;nan
60715;BME280;46564;53.096;8.246;2023-01-26T18:05:36;102172.53;;;3.79;nan
60715;BME280;46564;53.096;8.246;2023-01-26T18:10:38;102176.38;;;3.72;nan
60715;BME280;46564;53.096;8.246;2023-01-26T18:15:40;102172.69;;;3.68;nan
60715;BME280;46564;53.096;8.246;2023-01-26T18:20:43;102183.72;;;3.66;nan
60715;BME280;46564;53.096;8.246;2023-01-26T18:25:48;102198.19;;;3.62;nan
60715;BME280;46564;53.096;8.246;2023-01-26T18:30:51;102201.56;;;3.61;nan
60715;BME280;46564;53.096;8.246;2023-01-26T18:36:01;102213.31;;;3.56;nan
60715;BME280;46564;53.096;8.246;2023-01-26T18:41:03;102211.09;;;3.49;nan
60715;BME280;46564;53.096;8.246;2023-01-26T18:46:05;102216.53;;;3.40;nan
60715;BME280;46564;53.096;8.246;2023-01-26T18:51:11;102225.78;;;3.36;nan
60715;BME280;46564;53.096;8.246;2023-01-26T18:56:15;102232.75;;;3.38;nan
60715;BME280;46564;53.096;8.246;2023-01-26T19:01:17;102232.75;;;3.38;nan
60715;BME280;46564;53.096;8.246;2023-01-26T19:06:23;102239.53;;;3.35;nan
60715;BME280;46564;53.096;8.246;2023-01-26T19:11:27;102238.75;;;3.36;nan
60715;BME280;46564;53.096;8.246;2023-01-26T19:16:30;102246.66;;;3.26;nan
60715;BME280;46564;53.096;8.246;2023-01-26T19:21:32;102243.03;;;3.24;nan
60715;BME280;46564;53.096;8.246;2023-01-26T19:26:34;102242.81;;;3.21;nan
60715;BME280;46564;53.096;8.246;2023-01-26T19:31:36;102243.03;;;3.24;nan
60715;BME280;46564;53.096;8.246;2023-01-26T19:36:38;102250.22;;;3.28;nan
60715;BME280;46564;53.096;8.246;2023-01-26T19:41:40;102250.91;;;3.26;nan
60715;BME280;46564;53.096;8.246;2023-01-26T19:46:42;102252.41;;;3.22;nan
60715;BME280;46564;53.096;8.246;2023-01-26T19:51:43;102259.16;;;3.20;nan
60715;BME280;46564;53.096;8.246;2023-01-26T19:56:45;102261.66;;;3.18;nan
60715;BME280;46564;53.096;8.246;2023-01-26T20:01:47;102263.41;;;3.19;nan
60715;BME280;46564;53.096;8.246;2023-01-26T20:06:48;102260.72;;;3.18;nan
60715;BME280;46564;53.096;8.246;2023-01-26T20:11:50;102270.88;;;3.15;nan
60715;BME280;46564;53.096;8.246;2023-01-26T20:16:53;102272.25;;;2.98;nan
60715;BME280;46564;53.096;8.246;2023-01-26T20:21:54;102287.56;;;2.83;nan
60715;BME280;46564;53.096;8.246;2023-01-26T20:26:56;102287.13;;;2.77;nan
60715;BME280;46564;53.096;8.246;2023-01-26T20:31:58;102289.41;;;2.72;nan
60715;BME280;46564;53.096;8.246;2023-01-26T20:36:59;102287.59;;;2.71;nan
60715;BME280;46564;53.096;8.246;2023-01-26T20:42:01;102288.47;;;2.72;nan
60715;BME280;46564;53.096;8.246;2023-01-26T20:47:03;102294.69;;;2.74;nan
60715;BME280;46564;53.096;8.246;2023-01-26T20:52:04;102308.59;;;2.76;nan
60715;BME280;46564;53.096;8.246;2023-01-26T20:57:08;102308.59;;;2.76;nan
60715;BME280;46564;53.096;8.246;2023-01-26T21:02:14;102308.06;;;2.80;nan
60715;BME280;46564;53.096;8.246;2023-01-26T21:07:16;102303.09;;;2.83;nan
60715;BME280;46564;53.096;8.246;2023-01-26T21:12:18;102301.50;;;2.85;nan
60715;BME280;46564;53.096;8.246;2023-01-26T21:17:19;102317.03;;;2.85;nan
60715;BME280;46564;53.096;8.246;2023-01-26T21:22:23;102318.84;;;2.86;nan
60715;BME280;46564;53.096;8.246;2023-01-26T21:27:25;102324.78;;;2.85;nan
60715;BME280;46564;53.096;8.246;2023-01-26T21:32:26;102321.31;;;2.85;nan
60715;BME280;46564;53.096;8.246;2023-01-26T21:37:28;102323.81;;;2.83;nan
60715;BME280;46564;53.096;8.246;2023-01-26T21:42:29;102325.50;;;2.82;nan
60715;BME280;46564;53.096;8.246;2023-01-26T21:47:31;102322.91;;;2.82;nan
60715;BME280;46564;53.096;8.246;2023-01-26T21:52:33;102328.97;;;2.83;nan
60715;BME280;46564;53.096;8.246;2023-01-26T21:57:53;102318.63;;;2.83;nan
60715;BME280;46564;53.096;8.246;2023-01-26T22:03:13;102326.28;;;2.81;nan
60715;BME280;46564;53.096;8.246;2023-01-26T22:08:14;102319.28;;;2.80;nan
60715;BME280;46564;53.096;8.246;2023-01-26T22:13:16;102332.34;;;2.82;nan
60715;BME280;46564;53.096;8.246;2023-01-26T22:18:17;102329.63;;;2.80;nan
60715;BME280;46564;53.096;8.246;2023-01-26T22:23:19;102333.03;;;2.79;nan
60715;BME280;46564;53.096;8.246;2023-01-26T22:28:21;102332.13;;;2.79;nan
60715;BME280;46564;53.096;8.246;2023-01-26T22:33:23;102332.13;;;2.79;nan
60715;BME280;46564;53.096;8.246;2023-01-26T22:38:24;102330.34;;;2.78;nan
60715;BME280;46564;53.096;8.246;2023-01-26T22:43:26;102332.13;;;2.79;nan
60715;BME280;46564;53.096;8.246;2023-01-26T22:48:28;102329.41;;;2.77;nan
60715;BME280;46564;53.096;8.246;2023-01-26T22:53:30;102334.69;;;2.79;nan
60715;BME280;46564;53.096;8.246;2023-01-26T22:58:34;102329.53;;;2.79;nan
60715;BME280;46564;53.096;8.246;2023-01-26T23:03:53;102337.19;;;2.77;nan
60715;BME280;46564;53.096;8.246;2023-01-26T23:08:56;102335.50;;;2.78;nan
60715;BME280;46564;53.096;8.246;2023-01-26T23:13:59;102332.22;;;2.80;nan
60715;BME280;46564;53.096;8.246;2023-01-26T23:19:01;102337.72;;;2.85;nan
60715;BME280;46564;53.096;8.246;2023-01-26T23:24:02;102337.72;;;2.85;nan
60715;BME280;46564;53.096;8.246;2023-01-26T23:29:04;102345.72;;;2.88;nan
60715;BME280;46564;53.096;8.246;2023-01-26T23:34:06;102345.06;;;2.91;nan
60715;BME280;46564;53.096;8.246;2023-01-26T23:39:07;102346.09;;;2.93;nan
60715;BME280;46564;53.096;8.246;2023-01-26T23:44:09;102353.25;;;2.97;nan
60715;BME280;46564;53.096;8.246;2023-01-26T23:49:12;102353.38;;;2.98;nan
60715;BME280;46564;53.096;8.246;2023-01-26T23:54:13;102353.47;;;3.00;nan
60715;BME280;46564;53.096;8.246;2023-01-26T23:59:15;102350.78;;;2.98;nan
